sensor_id;sensor_type;location;lat;lon;timestamp;pressure;altitude;pressure_sealevel;temperature
11424;BMP180;5768;51.476;7.210;2024-01-07T00:04:48;100157.00;;;7.00
11424;BMP180;5768;51.476;7.210;2024-01-07T00:09:51;100159.00;;;7.00
11424;BMP180;5768;51.476;7.210;2024-01-07T00:14:53;100171.00;;;7.10
11424;BMP180;5768;51.476;7.210;2024-01-07T00:19:55;100172.00;;;7.10
11424;BMP180;5768;51.476;7.210;2024-01-07T00:24:59;100174.00;;;7.10
11424;BMP180;5768;51.476;7.210;2024-01-07T00:30:02;100170.00;;;7.20
11424;BMP180;5768;51.476;7.210;2024-01-07T00:35:05;100182.00;;;7.30
11424;BMP180;5768;51.476;7.210;2024-01-07T00:40:11;100185.00;;;7.20
11424;BMP180;5768;51.476;7.210;2024-01-07T00:45:16;100186.00;;;7.30
11424;BMP180;5768;51.476;7.210;2024-01-07T00:50:18;100194.00;;;7.30
11424;BMP180;5768;51.476;7.210;2024-01-07T00:55:22;100201.00;;;7.20
11424;BMP180;5768;51.476;7.210;2024-01-07T01:00:25;100199.00;;;7.20
11424;BMP180;5768;51.476;7.210;2024-01-07T01:05:27;100209.00;;;7.20
11424;BMP180;5768;51.476;7.210;2024-01-07T01:10:30;100205.00;;;7.30
11424;BMP180;5768;51.476;7.210;2024-01-07T01:15:33;100206.00;;;7.30
11424;BMP180;5768;51.476;7.210;2024-01-07T01:20:35;100209.00;;;7.20
11424;BMP180;5768;51.476;7.210;2024-01-07T01:25:38;100216.00;;;7.20
11424;BMP180;5768;51.476;7.210;2024-01-07T01:30:41;100219.00;;;7.30
11424;BMP180;5768;51.476;7.210;2024-01-07T01:35:43;100233.00;;;7.30
11424;BMP180;5768;51.476;7.210;2024-01-07T01:40:52;100233.00;;;7.20
11424;BMP180;5768;51.476;7.210;2024-01-07T01:45:55;100246.00;;;7.20
11424;BMP180;5768;51.476;7.210;2024-01-07T01:50:58;100242.00;;;7.10
11424;BMP180;5768;51.476;7.210;2024-01-07T01:56:02;100255.00;;;7.10
11424;BMP180;5768;51.476;7.210;2024-01-07T02:01:05;100258.00;;;7.00
11424;BMP180;5768;51.476;7.210;2024-01-07T02:06:08;100257.00;;;7.10
11424;BMP180;5768;51.476;7.210;2024-01-07T02:11:17;100271.00;;;7.10
11424;BMP180;5768;51.476;7.210;2024-01-07T02:16:19;100268.00;;;7.10
11424;BMP180;5768;51.476;7.210;2024-01-07T02:21:22;100277.00;;;7.10
11424;BMP180;5768;51.476;7.210;2024-01-07T02:26:26;100262.00;;;7.00
11424;BMP180;5768;51.476;7.210;2024-01-07T02:31:28;100280.00;;;6.90
11424;BMP180;5768;51.476;7.210;2024-01-07T02:36:30;100285.00;;;6.80
11424;BMP180;5768;51.476;7.210;2024-01-07T02:41:33;100278.00;;;6.70
11424;BMP180;5768;51.476;7.210;2024-01-07T02:46:35;100281.00;;;6.60
11424;BMP180;5768;51.476;7.210;2024-01-07T02:51:38;100292.00;;;6.70
11424;BMP180;5768;51.476;7.210;2024-01-07T02:56:41;100285.00;;;6.70
11424;BMP180;5768;51.476;7.210;2024-01-07T03:01:43;100299.00;;;6.80
11424;BMP180;5768;51.476;7.210;2024-01-07T03:06:46;100304.00;;;6.90
11424;BMP180;5768;51.476;7.210;2024-01-07T03:11:49;100312.00;;;6.90
11424;BMP180;5768;51.476;7.210;2024-01-07T03:16:51;100320.00;;;6.90
11424;BMP180;5768;51.476;7.210;2024-01-07T03:21:53;100319.00;;;6.90
11424;BMP180;5768;51.476;7.210;2024-01-07T03:26:57;100332.00;;;6.90
11424;BMP180;5768;51.476;7.210;2024-01-07T03:31:59;100330.00;;;6.90
11424;BMP180;5768;51.476;7.210;2024-01-07T03:37:01;100331.00;;;6.80
11424;BMP180;5768;51.476;7.210;2024-01-07T03:42:05;100323.00;;;6.70
11424;BMP180;5768;51.476;7.210;2024-01-07T03:47:12;100335.00;;;6.60
11424;BMP180;5768;51.476;7.210;2024-01-07T03:52:14;100341.00;;;6.70
11424;BMP180;5768;51.476;7.210;2024-01-07T03:57:18;100335.00;;;6.80
11424;BMP180;5768;51.476;7.210;2024-01-07T04:02:20;100341.00;;;6.80
11424;BMP180;5768;51.476;7.210;2024-01-07T04:07:22;100350.00;;;6.80
11424;BMP180;5768;51.476;7.210;2024-01-07T04:12:26;100351.00;;;6.90
11424;BMP180;5768;51.476;7.210;2024-01-07T04:17:28;100364.00;;;6.80
11424;BMP180;5768;51.476;7.210;2024-01-07T04:22:30;100370.00;;;6.70
11424;BMP180;5768;51.476;7.210;2024-01-07T04:27:34;100372.00;;;6.60
11424;BMP180;5768;51.476;7.210;2024-01-07T04:32:36;100372.00;;;6.40
11424;BMP180;5768;51.476;7.210;2024-01-07T04:37:39;100372.00;;;6.40
11424;BMP180;5768;51.476;7.210;2024-01-07T04:42:42;100374.00;;;6.40
11424;BMP180;5768;51.476;7.210;2024-01-07T04:47:44;100387.00;;;6.40
11424;BMP180;5768;51.476;7.210;2024-01-07T04:52:47;100396.00;;;6.40
11424;BMP180;5768;51.476;7.210;2024-01-07T04:57:50;100397.00;;;6.30
11424;BMP180;5768;51.476;7.210;2024-01-07T05:02:52;100398.00;;;6.40
11424;BMP180;5768;51.476;7.210;2024-01-07T05:07:55;100399.00;;;6.30
11424;BMP180;5768;51.476;7.210;2024-01-07T05:13:07;100412.00;;;6.30
11424;BMP180;5768;51.476;7.210;2024-01-07T05:18:09;100419.00;;;6.30
11424;BMP180;5768;51.476;7.210;2024-01-07T05:23:12;100419.00;;;6.30
11424;BMP180;5768;51.476;7.210;2024-01-07T05:28:15;100428.00;;;6.30
11424;BMP180;5768;51.476;7.210;2024-01-07T05:33:20;100429.00;;;6.40
11424;BMP180;5768;51.476;7.210;2024-01-07T05:38:22;100433.00;;;6.40
11424;BMP180;5768;51.476;7.210;2024-01-07T05:43:25;100438.00;;;6.30
11424;BMP180;5768;51.476;7.210;2024-01-07T05:48:27;100444.00;;;6.30
11424;BMP180;5768;51.476;7.210;2024-01-07T05:53:29;100450.00;;;6.30
11424;BMP180;5768;51.476;7.210;2024-01-07T05:58:33;100459.00;;;6.30
11424;BMP180;5768;51.476;7.210;2024-01-07T06:03:35;100468.00;;;6.30
11424;BMP180;5768;51.476;7.210;2024-01-07T06:08:37;100472.00;;;6.20
11424;BMP180;5768;51.476;7.210;2024-01-07T06:13:41;100482.00;;;6.10
11424;BMP180;5768;51.476;7.210;2024-01-07T06:18:43;100480.00;;;6.10
11424;BMP180;5768;51.476;7.210;2024-01-07T06:23:45;100490.00;;;6.10
11424;BMP180;5768;51.476;7.210;2024-01-07T06:28:49;100487.00;;;6.10
11424;BMP180;5768;51.476;7.210;2024-01-07T06:33:51;100500.00;;;6.10
11424;BMP180;5768;51.476;7.210;2024-01-07T06:38:53;100518.00;;;6.00
11424;BMP180;5768;51.476;7.210;2024-01-07T06:43:56;100525.00;;;6.00
11424;BMP180;5768;51.476;7.210;2024-01-07T06:48:59;100527.00;;;6.00
11424;BMP180;5768;51.476;7.210;2024-01-07T06:54:01;100522.00;;;6.00
11424;BMP180;5768;51.476;7.210;2024-01-07T06:59:05;100537.00;;;6.00
11424;BMP180;5768;51.476;7.210;2024-01-07T07:04:08;100553.00;;;6.00
11424;BMP180;5768;51.476;7.210;2024-01-07T07:09:10;100557.00;;;5.90
11424;BMP180;5768;51.476;7.210;2024-01-07T07:14:15;100563.00;;;5.80
11424;BMP180;5768;51.476;7.210;2024-01-07T07:19:17;100567.00;;;5.90
11424;BMP180;5768;51.476;7.210;2024-01-07T07:24:19;100578.00;;;5.90
11424;BMP180;5768;51.476;7.210;2024-01-07T07:29:23;100593.00;;;5.90
11424;BMP180;5768;51.476;7.210;2024-01-07T07:34:25;100593.00;;;5.80
11424;BMP180;5768;51.476;7.210;2024-01-07T07:39:27;100603.00;;;5.70
11424;BMP180;5768;51.476;7.210;2024-01-07T07:44:32;100616.00;;;5.70
11424;BMP180;5768;51.476;7.210;2024-01-07T07:49:34;100626.00;;;5.80
11424;BMP180;5768;51.476;7.210;2024-01-07T07:54:38;100637.00;;;5.80
11424;BMP180;5768;51.476;7.210;2024-01-07T07:59:41;100651.00;;;5.80
11424;BMP180;5768;51.476;7.210;2024-01-07T08:04:44;100655.00;;;5.80
11424;BMP180;5768;51.476;7.210;2024-01-07T08:09:46;100669.00;;;5.70
11424;BMP180;5768;51.476;7.210;2024-01-07T08:14:50;100671.00;;;5.70
11424;BMP180;5768;51.476;7.210;2024-01-07T08:19:52;100682.00;;;5.60
11424;BMP180;5768;51.476;7.210;2024-01-07T08:24:54;100683.00;;;5.70
11424;BMP180;5768;51.476;7.210;2024-01-07T08:29:58;100677.00;;;5.70
11424;BMP180;5768;51.476;7.210;2024-01-07T08:35:00;100695.00;;;5.70
11424;BMP180;5768;51.476;7.210;2024-01-07T08:40:03;100698.00;;;5.70
11424;BMP180;5768;51.476;7.210;2024-01-07T08:45:08;100710.00;;;5.80
11424;BMP180;5768;51.476;7.210;2024-01-07T08:50:13;100713.00;;;5.80
11424;BMP180;5768;51.476;7.210;2024-01-07T08:55:15;100712.00;;;5.80
11424;BMP180;5768;51.476;7.210;2024-01-07T09:00:19;100732.00;;;5.70
11424;BMP180;5768;51.476;7.210;2024-01-07T09:05:26;100733.00;;;5.70
11424;BMP180;5768;51.476;7.210;2024-01-07T09:10:28;100743.00;;;5.70
11424;BMP180;5768;51.476;7.210;2024-01-07T09:15:32;100746.00;;;5.80
11424;BMP180;5768;51.476;7.210;2024-01-07T09:20:34;100757.00;;;5.80
11424;BMP180;5768;51.476;7.210;2024-01-07T09:25:37;100748.00;;;5.80
11424;BMP180;5768;51.476;7.210;2024-01-07T09:30:40;100760.00;;;5.80
11424;BMP180;5768;51.476;7.210;2024-01-07T09:35:42;100770.00;;;5.80
11424;BMP180;5768;51.476;7.210;2024-01-07T09:40:45;100778.00;;;5.80
11424;BMP180;5768;51.476;7.210;2024-01-07T09:45:51;100786.00;;;5.80
11424;BMP180;5768;51.476;7.210;2024-01-07T09:50:54;100792.00;;;6.00
11424;BMP180;5768;51.476;7.210;2024-01-07T09:56:07;100799.00;;;6.10
11424;BMP180;5768;51.476;7.210;2024-01-07T10:01:17;100792.00;;;6.00
11424;BMP180;5768;51.476;7.210;2024-01-07T10:06:20;100796.00;;;6.10
11424;BMP180;5768;51.476;7.210;2024-01-07T10:11:22;100801.00;;;6.00
11424;BMP180;5768;51.476;7.210;2024-01-07T10:16:26;100812.00;;;6.10
11424;BMP180;5768;51.476;7.210;2024-01-07T10:21:28;100808.00;;;6.10
11424;BMP180;5768;51.476;7.210;2024-01-07T10:26:31;100806.00;;;6.10
11424;BMP180;5768;51.476;7.210;2024-01-07T10:31:38;100799.00;;;6.00
11424;BMP180;5768;51.476;7.210;2024-01-07T10:36:42;100798.00;;;6.00
11424;BMP180;5768;51.476;7.210;2024-01-07T10:41:46;100803.00;;;6.10
11424;BMP180;5768;51.476;7.210;2024-01-07T10:46:53;100818.00;;;6.10
11424;BMP180;5768;51.476;7.210;2024-01-07T10:52:03;100820.00;;;6.10
11424;BMP180;5768;51.476;7.210;2024-01-07T10:57:15;100817.00;;;6.10
11424;BMP180;5768;51.476;7.210;2024-01-07T11:02:25;100824.00;;;6.10
11424;BMP180;5768;51.476;7.210;2024-01-07T11:07:35;100833.00;;;6.10
11424;BMP180;5768;51.476;7.210;2024-01-07T11:12:39;100823.00;;;6.20
11424;BMP180;5768;51.476;7.210;2024-01-07T11:17:43;100829.00;;;6.20
11424;BMP180;5768;51.476;7.210;2024-01-07T11:22:46;100835.00;;;6.20
11424;BMP180;5768;51.476;7.210;2024-01-07T11:27:48;100837.00;;;6.20
11424;BMP180;5768;51.476;7.210;2024-01-07T11:32:58;100852.00;;;6.30
11424;BMP180;5768;51.476;7.210;2024-01-07T11:38:05;100853.00;;;6.30
11424;BMP180;5768;51.476;7.210;2024-01-07T11:43:07;100851.00;;;6.20
11424;BMP180;5768;51.476;7.210;2024-01-07T11:48:15;100855.00;;;6.20
11424;BMP180;5768;51.476;7.210;2024-01-07T11:53:18;100856.00;;;6.20
11424;BMP180;5768;51.476;7.210;2024-01-07T11:58:20;100861.00;;;6.10
11424;BMP180;5768;51.476;7.210;2024-01-07T12:03:30;100878.00;;;6.00
11424;BMP180;5768;51.476;7.210;2024-01-07T12:08:32;100877.00;;;6.00
11424;BMP180;5768;51.476;7.210;2024-01-07T12:13:35;100877.00;;;6.10
11424;BMP180;5768;51.476;7.210;2024-01-07T12:18:39;100870.00;;;6.10
11424;BMP180;5768;51.476;7.210;2024-01-07T12:23:41;100885.00;;;6.00
11424;BMP180;5768;51.476;7.210;2024-01-07T12:28:44;100896.00;;;6.00
11424;BMP180;5768;51.476;7.210;2024-01-07T12:33:48;100893.00;;;5.90
11424;BMP180;5768;51.476;7.210;2024-01-07T12:38:52;100888.00;;;6.00
11424;BMP180;5768;51.476;7.210;2024-01-07T12:43:54;100911.00;;;5.90
11424;BMP180;5768;51.476;7.210;2024-01-07T12:48:58;100901.00;;;5.80
11424;BMP180;5768;51.476;7.210;2024-01-07T12:54:01;100909.00;;;5.90
11424;BMP180;5768;51.476;7.210;2024-01-07T12:59:04;100903.00;;;5.90
11424;BMP180;5768;51.476;7.210;2024-01-07T13:04:08;100916.00;;;5.70
11424;BMP180;5768;51.476;7.210;2024-01-07T13:09:10;100925.00;;;5.60
11424;BMP180;5768;51.476;7.210;2024-01-07T13:14:14;100935.00;;;5.60
11424;BMP180;5768;51.476;7.210;2024-01-07T13:19:17;100944.00;;;5.70
11424;BMP180;5768;51.476;7.210;2024-01-07T13:24:20;100937.00;;;5.60
11424;BMP180;5768;51.476;7.210;2024-01-07T13:29:25;100953.00;;;5.60
11424;BMP180;5768;51.476;7.210;2024-01-07T13:34:29;100960.00;;;5.60
11424;BMP180;5768;51.476;7.210;2024-01-07T13:39:31;100951.00;;;5.60
11424;BMP180;5768;51.476;7.210;2024-01-07T13:44:34;100956.00;;;5.60
11424;BMP180;5768;51.476;7.210;2024-01-07T13:49:37;100961.00;;;5.70
11424;BMP180;5768;51.476;7.210;2024-01-07T13:54:40;100974.00;;;5.60
11424;BMP180;5768;51.476;7.210;2024-01-07T13:59:42;100976.00;;;5.50
11424;BMP180;5768;51.476;7.210;2024-01-07T14:04:46;100972.00;;;5.40
11424;BMP180;5768;51.476;7.210;2024-01-07T14:09:52;100967.00;;;5.50
11424;BMP180;5768;51.476;7.210;2024-01-07T14:14:54;100979.00;;;5.40
11424;BMP180;5768;51.476;7.210;2024-01-07T14:19:58;100981.00;;;5.40
11424;BMP180;5768;51.476;7.210;2024-01-07T14:25:01;100987.00;;;5.40
11424;BMP180;5768;51.476;7.210;2024-01-07T14:30:05;100982.00;;;5.40
11424;BMP180;5768;51.476;7.210;2024-01-07T14:35:11;100995.00;;;5.50
11424;BMP180;5768;51.476;7.210;2024-01-07T14:40:15;101007.00;;;5.50
11424;BMP180;5768;51.476;7.210;2024-01-07T14:45:17;101013.00;;;5.40
11424;BMP180;5768;51.476;7.210;2024-01-07T14:50:21;101022.00;;;5.40
11424;BMP180;5768;51.476;7.210;2024-01-07T14:55:23;101026.00;;;5.30
11424;BMP180;5768;51.476;7.210;2024-01-07T15:00:25;101025.00;;;5.30
11424;BMP180;5768;51.476;7.210;2024-01-07T15:05:29;101033.00;;;5.30
11424;BMP180;5768;51.476;7.210;2024-01-07T15:10:32;101039.00;;;5.20
11424;BMP180;5768;51.476;7.210;2024-01-07T15:15:34;101041.00;;;5.20
11424;BMP180;5768;51.476;7.210;2024-01-07T15:20:40;101045.00;;;5.10
11424;BMP180;5768;51.476;7.210;2024-01-07T15:25:43;101056.00;;;5.20
11424;BMP180;5768;51.476;7.210;2024-01-07T15:30:46;101064.00;;;5.20
11424;BMP180;5768;51.476;7.210;2024-01-07T15:35:50;101078.00;;;5.20
11424;BMP180;5768;51.476;7.210;2024-01-07T15:40:52;101095.00;;;5.10
11424;BMP180;5768;51.476;7.210;2024-01-07T15:45:54;101104.00;;;5.10
11424;BMP180;5768;51.476;7.210;2024-01-07T15:51:02;101102.00;;;5.10
11424;BMP180;5768;51.476;7.210;2024-01-07T15:56:05;101096.00;;;5.10
11424;BMP180;5768;51.476;7.210;2024-01-07T16:01:07;101102.00;;;5.10
11424;BMP180;5768;51.476;7.210;2024-01-07T16:06:11;101115.00;;;5.10
11424;BMP180;5768;51.476;7.210;2024-01-07T16:11:14;101122.00;;;5.10
11424;BMP180;5768;51.476;7.210;2024-01-07T16:16:18;101124.00;;;5.10
11424;BMP180;5768;51.476;7.210;2024-01-07T16:21:22;101140.00;;;5.20
11424;BMP180;5768;51.476;7.210;2024-01-07T16:26:24;101136.00;;;5.20
11424;BMP180;5768;51.476;7.210;2024-01-07T16:31:26;101150.00;;;5.20
11424;BMP180;5768;51.476;7.210;2024-01-07T16:36:30;101141.00;;;5.20
11424;BMP180;5768;51.476;7.210;2024-01-07T16:41:32;101150.00;;;5.20
11424;BMP180;5768;51.476;7.210;2024-01-07T16:46:34;101158.00;;;5.30
11424;BMP180;5768;51.476;7.210;2024-01-07T16:51:39;101158.00;;;5.30
11424;BMP180;5768;51.476;7.210;2024-01-07T16:56:41;101159.00;;;5.30
11424;BMP180;5768;51.476;7.210;2024-01-07T17:01:43;101154.00;;;5.20
11424;BMP180;5768;51.476;7.210;2024-01-07T17:06:47;101162.00;;;5.00
11424;BMP180;5768;51.476;7.210;2024-01-07T17:11:51;101181.00;;;4.90
11424;BMP180;5768;51.476;7.210;2024-01-07T17:16:53;101178.00;;;5.00
11424;BMP180;5768;51.476;7.210;2024-01-07T17:21:57;101189.00;;;4.90
11424;BMP180;5768;51.476;7.210;2024-01-07T17:26:59;101186.00;;;4.60
11424;BMP180;5768;51.476;7.210;2024-01-07T17:32:02;101196.00;;;4.40
11424;BMP180;5768;51.476;7.210;2024-01-07T17:37:09;101205.00;;;4.40
11424;BMP180;5768;51.476;7.210;2024-01-07T17:42:11;101197.00;;;4.70
11424;BMP180;5768;51.476;7.210;2024-01-07T17:47:13;101208.00;;;4.50
11424;BMP180;5768;51.476;7.210;2024-01-07T17:52:17;101212.00;;;4.30
11424;BMP180;5768;51.476;7.210;2024-01-07T17:57:20;101221.00;;;4.30
11424;BMP180;5768;51.476;7.210;2024-01-07T18:02:22;101216.00;;;4.40
11424;BMP180;5768;51.476;7.210;2024-01-07T18:07:26;101222.00;;;4.20
11424;BMP180;5768;51.476;7.210;2024-01-07T18:12:28;101228.00;;;3.80
11424;BMP180;5768;51.476;7.210;2024-01-07T18:17:31;101226.00;;;3.50
11424;BMP180;5768;51.476;7.210;2024-01-07T18:22:36;101244.00;;;3.40
11424;BMP180;5768;51.476;7.210;2024-01-07T18:27:38;101235.00;;;3.30
11424;BMP180;5768;51.476;7.210;2024-01-07T18:32:40;101245.00;;;3.20
11424;BMP180;5768;51.476;7.210;2024-01-07T18:37:44;101248.00;;;3.10
11424;BMP180;5768;51.476;7.210;2024-01-07T18:42:53;101249.00;;;3.00
11424;BMP180;5768;51.476;7.210;2024-01-07T18:48:02;101256.00;;;2.90
11424;BMP180;5768;51.476;7.210;2024-01-07T18:53:07;101260.00;;;2.90
11424;BMP180;5768;51.476;7.210;2024-01-07T18:58:09;101255.00;;;2.80
11424;BMP180;5768;51.476;7.210;2024-01-07T19:03:12;101264.00;;;2.80
11424;BMP180;5768;51.476;7.210;2024-01-07T19:08:17;101272.00;;;2.70
11424;BMP180;5768;51.476;7.210;2024-01-07T19:13:19;101267.00;;;2.70
11424;BMP180;5768;51.476;7.210;2024-01-07T19:18:24;101271.00;;;2.60
11424;BMP180;5768;51.476;7.210;2024-01-07T19:23:29;101279.00;;;2.70
11424;BMP180;5768;51.476;7.210;2024-01-07T19:28:35;101279.00;;;2.70
11424;BMP180;5768;51.476;7.210;2024-01-07T19:33:39;101276.00;;;2.70
11424;BMP180;5768;51.476;7.210;2024-01-07T19:38:45;101271.00;;;2.80
11424;BMP180;5768;51.476;7.210;2024-01-07T19:43:47;101283.00;;;2.80
11424;BMP180;5768;51.476;7.210;2024-01-07T19:48:52;101286.00;;;2.70
11424;BMP180;5768;51.476;7.210;2024-01-07T19:53:56;101283.00;;;2.60
11424;BMP180;5768;51.476;7.210;2024-01-07T19:58:59;101287.00;;;2.60
11424;BMP180;5768;51.476;7.210;2024-01-07T20:04:01;101296.00;;;2.60
11424;BMP180;5768;51.476;7.210;2024-01-07T20:09:04;101306.00;;;2.50
11424;BMP180;5768;51.476;7.210;2024-01-07T20:14:07;101300.00;;;2.50
11424;BMP180;5768;51.476;7.210;2024-01-07T20:19:10;101304.00;;;2.40
11424;BMP180;5768;51.476;7.210;2024-01-07T20:24:15;101309.00;;;2.40
11424;BMP180;5768;51.476;7.210;2024-01-07T20:29:17;101303.00;;;2.40
11424;BMP180;5768;51.476;7.210;2024-01-07T20:34:19;101307.00;;;2.40
11424;BMP180;5768;51.476;7.210;2024-01-07T20:39:25;101302.00;;;2.30
11424;BMP180;5768;51.476;7.210;2024-01-07T20:44:27;101304.00;;;2.40
11424;BMP180;5768;51.476;7.210;2024-01-07T20:49:29;101314.00;;;2.40
11424;BMP180;5768;51.476;7.210;2024-01-07T20:54:33;101311.00;;;2.40
11424;BMP180;5768;51.476;7.210;2024-01-07T20:59:35;101314.00;;;2.30
11424;BMP180;5768;51.476;7.210;2024-01-07T21:04:43;101310.00;;;2.30
11424;BMP180;5768;51.476;7.210;2024-01-07T21:09:47;101323.00;;;2.30
11424;BMP180;5768;51.476;7.210;2024-01-07T21:14:49;101325.00;;;2.30
11424;BMP180;5768;51.476;7.210;2024-01-07T21:19:52;101320.00;;;2.50
11424;BMP180;5768;51.476;7.210;2024-01-07T21:24:55;101336.00;;;2.80
11424;BMP180;5768;51.476;7.210;2024-01-07T21:29:58;101337.00;;;3.20
11424;BMP180;5768;51.476;7.210;2024-01-07T21:35:00;101333.00;;;3.40
11424;BMP180;5768;51.476;7.210;2024-01-07T21:40:08;101335.00;;;3.50
11424;BMP180;5768;51.476;7.210;2024-01-07T21:45:10;101345.00;;;3.50
11424;BMP180;5768;51.476;7.210;2024-01-07T21:50:12;101347.00;;;3.50
11424;BMP180;5768;51.476;7.210;2024-01-07T21:55:19;101336.00;;;3.60
11424;BMP180;5768;51.476;7.210;2024-01-07T22:00:21;101339.00;;;3.70
11424;BMP180;5768;51.476;7.210;2024-01-07T22:05:23;101348.00;;;3.80
11424;BMP180;5768;51.476;7.210;2024-01-07T22:10:27;101346.00;;;3.80
11424;BMP180;5768;51.476;7.210;2024-01-07T22:15:31;101349.00;;;3.80
11424;BMP180;5768;51.476;7.210;2024-01-07T22:20:34;101342.00;;;3.80
11424;BMP180;5768;51.476;7.210;2024-01-07T22:25:37;101345.00;;;3.90
11424;BMP180;5768;51.476;7.210;2024-01-07T22:30:40;101356.00;;;4.00
11424;BMP180;5768;51.476;7.210;2024-01-07T22:35:42;101358.00;;;4.00
11424;BMP180;5768;51.476;7.210;2024-01-07T22:40:46;101351.00;;;3.90
11424;BMP180;5768;51.476;7.210;2024-01-07T22:45:49;101347.00;;;3.80
11424;BMP180;5768;51.476;7.210;2024-01-07T22:50:51;101352.00;;;3.80
11424;BMP180;5768;51.476;7.210;2024-01-07T22:55:55;101359.00;;;3.80
11424;BMP180;5768;51.476;7.210;2024-01-07T23:00:57;101360.00;;;3.70
11424;BMP180;5768;51.476;7.210;2024-01-07T23:05:59;101376.00;;;3.70
11424;BMP180;5768;51.476;7.210;2024-01-07T23:11:04;101368.00;;;3.70
11424;BMP180;5768;51.476;7.210;2024-01-07T23:16:06;101374.00;;;3.70
11424;BMP180;5768;51.476;7.210;2024-01-07T23:21:09;101381.00;;;3.70
11424;BMP180;5768;51.476;7.210;2024-01-07T23:26:12;101380.00;;;3.70
11424;BMP180;5768;51.476;7.210;2024-01-07T23:31:15;101383.00;;;3.70
11424;BMP180;5768;51.476;7.210;2024-01-07T23:36:17;101388.00;;;3.70
11424;BMP180;5768;51.476;7.210;2024-01-07T23:41:20;101390.00;;;3.70
11424;BMP180;5768;51.476;7.210;2024-01-07T23:46:22;101389.00;;;3.60
11424;BMP180;5768;51.476;7.210;2024-01-07T23:51:25;101395.00;;;3.50
11424;BMP180;5768;51.476;7.210;2024-01-07T23:56:34;101387.00;;;3.50
